Time;durP1;ratioP1;P1;durP2;ratioP2;P2;SDS_P1;SDS_P2;PMS_P1;PMS_P2;Temp;Humidity;BMP_temperature;BMP_pressure;BME280_temperature;BME280_humidity;BME280_pressure;Samples;Min_cycle;Max_cycle;Signal;HPM_P1;HPM_P2
2023/05/25 00:00:48;;;;;;;9.88;5.10;;;;;;;8.92;100.00;102679.44;4969493;28;20183;-77
2023/05/25 00:03:32;;;;;;;15.68;6.10;;;;;;;8.92;100.00;102682.97;4988708;28;20065;-76
2023/05/25 00:06:20;;;;;;;10.15;5.47;;;;;;;8.91;100.00;102675.06;4990243;28;20049;-77
2023/05/25 00:09:04;;;;;;;18.52;6.00;;;;;;;8.92;100.00;102684.72;4988917;28;20045;-77
2023/05/25 00:11:48;;;;;;;13.85;6.30;;;;;;;8.92;100.00;102679.44;4971662;28;20072;-77
2023/05/25 00:14:32;;;;;;;13.02;5.35;;;;;;;8.93;100.00;102682.09;4960970;28;20045;-77
2023/05/25 00:17:18;;;;;;;11.75;5.70;;;;;;;8.91;100.00;102693.53;4974567;28;20136;-77
2023/05/25 00:20:06;;;;;;;14.38;5.60;;;;;;;8.90;100.00;102692.69;4985594;28;20073;-76
2023/05/25 00:22:51;;;;;;;9.88;5.47;;;;;;;8.88;100.00;102694.44;4973841;28;20651;-76
2023/05/25 00:25:35;;;;;;;16.05;5.47;;;;;;;8.86;100.00;102690.06;4968771;28;20500;-77
2023/05/25 00:28:19;;;;;;;17.52;6.25;;;;;;;8.83;100.00;102691.00;4969243;28;20151;-76
2023/05/25 00:31:03;;;;;;;16.20;6.57;;;;;;;8.83;100.00;102701.56;4974043;28;21993;-77
2023/05/25 00:33:49;;;;;;;11.90;5.50;;;;;;;8.79;100.00;102695.44;4984227;28;20643;-77
2023/05/25 00:36:33;;;;;;;13.75;5.45;;;;;;;8.80;100.00;102701.56;4971474;28;21967;-77
2023/05/25 00:39:19;;;;;;;10.88;5.40;;;;;;;8.79;100.00;102700.72;4973541;28;20053;-76
2023/05/25 00:42:05;;;;;;;12.88;5.22;;;;;;;8.77;100.00;102697.19;4972381;28;20133;-77
2023/05/25 00:44:49;;;;;;;15.60;5.45;;;;;;;8.76;100.00;102694.56;4972967;28;20147;-77
2023/05/25 00:47:33;;;;;;;12.05;5.72;;;;;;;8.72;100.00;102693.69;4985000;28;20465;-77
2023/05/25 00:50:21;;;;;;;12.05;5.40;;;;;;;8.68;100.00;102694.63;4988412;28;20053;-77
2023/05/25 00:53:09;;;;;;;18.15;5.75;;;;;;;8.70;100.00;102698.13;4986938;28;20048;-78
2023/05/25 00:56:02;;;;;;;13.45;5.75;;;;;;;8.67;100.00;102685.81;4988097;28;21943;-77
2023/05/25 00:58:49;;;;;;;9.32;5.38;;;;;;;8.66;100.00;102688.50;4987900;28;20080;-77
2023/05/25 01:01:38;;;;;;;11.77;5.57;;;;;;;8.65;100.00;102692.00;4975117;28;20049;-77
2023/05/25 01:04:24;;;;;;;14.48;5.85;;;;;;;8.63;100.00;102692.03;4988119;28;20080;-77
2023/05/25 01:07:11;;;;;;;9.70;5.85;;;;;;;8.63;100.00;102692.03;4986608;28;20139;-76
2023/05/25 01:10:01;;;;;;;16.08;5.97;;;;;;;8.61;100.00;102696.41;4988582;28;20539;-77
2023/05/25 01:12:46;;;;;;;10.27;6.05;;;;;;;8.61;100.00;102698.19;4986257;28;21205;-77
2023/05/25 01:15:31;;;;;;;13.38;5.78;;;;;;;8.60;100.00;102699.09;4967187;28;20107;-76
2023/05/25 01:18:16;;;;;;;12.30;5.80;;;;;;;8.59;100.00;102702.59;4986774;28;20057;-77
2023/05/25 01:21:12;;;;;;;14.85;6.80;;;;;;;8.56;100.00;102695.59;4987175;28;20575;-77
2023/05/25 01:24:08;;;;;;;13.40;6.00;;;;;;;8.55;100.00;102702.63;4971041;28;20048;-77
2023/05/25 01:27:31;;;;;;;12.38;5.70;;;;;;;8.52;100.00;102696.50;4985650;28;20100;-77
2023/05/25 01:30:16;;;;;;;13.88;5.90;;;;;;;8.51;100.00;102700.88;4911821;29;20079;-75
2023/05/25 01:33:00;;;;;;;12.43;6.07;;;;;;;8.49;100.00;102707.06;4982360;28;20060;-77
2023/05/25 01:35:46;;;;;;;15.80;6.63;;;;;;;8.48;100.00;102711.44;4959539;28;20265;-76
2023/05/25 01:38:30;;;;;;;12.68;6.15;;;;;;;8.47;100.00;102711.47;4986994;28;20136;-76
2023/05/25 01:41:14;;;;;;;13.25;5.72;;;;;;;8.43;100.00;102719.41;4972899;28;20141;-76
2023/05/25 01:43:58;;;;;;;12.10;6.38;;;;;;;8.42;100.00;102712.38;4971991;28;20061;-76
2023/05/25 01:46:42;;;;;;;12.93;6.50;;;;;;;8.41;100.00;102710.59;4972392;28;20056;-76
2023/05/25 01:49:56;;;;;;;15.30;6.30;;;;;;;8.40;100.00;102726.47;4985571;28;20053;-76
2023/05/25 01:52:49;;;;;;;;;;;;;;;8.38;100.00;102720.31;4977038;28;20515;-76
2023/05/25 01:55:36;;;;;;;11.97;5.23;;;;;;;8.35;100.00;102715.06;4969465;28;20863;-77
2023/05/25 01:58:21;;;;;;;12.50;5.60;;;;;;;8.34;100.00;102723.88;4966214;28;20276;-77
2023/05/25 02:01:07;;;;;;;12.90;5.57;;;;;;;8.31;100.00;102716.84;4973164;28;20094;-75
2023/05/25 02:03:51;;;;;;;10.35;5.00;;;;;;;8.31;100.00;102719.47;4986167;28;20511;-77
2023/05/25 02:06:35;;;;;;;13.73;5.30;;;;;;;8.31;100.00;102718.59;4986382;28;20052;-77
2023/05/25 02:09:20;;;;;;;12.98;5.95;;;;;;;8.29;100.00;102706.28;4985426;28;20646;-76
2023/05/25 02:12:05;;;;;;;12.02;5.60;;;;;;;8.31;100.00;102714.19;4986093;28;20120;-76
2023/05/25 02:14:49;;;;;;;14.50;6.22;;;;;;;8.31;100.00;102705.38;4967968;28;20142;-77
2023/05/25 02:17:35;;;;;;;10.48;5.70;;;;;;;8.28;100.00;102707.19;4987242;28;20080;-76
2023/05/25 02:20:20;;;;;;;14.30;5.68;;;;;;;8.29;100.00;102711.56;4986396;28;20788;-76
2023/05/25 02:23:04;;;;;;;13.32;5.68;;;;;;;8.28;100.00;102703.66;4989492;28;20053;-76
2023/05/25 02:25:50;;;;;;;11.75;5.65;;;;;;;8.28;100.00;102707.19;4974741;28;20409;-76
2023/05/25 02:28:34;;;;;;;10.07;5.35;;;;;;;8.29;100.00;102705.44;4976308;28;20108;-76
2023/05/25 02:31:18;;;;;;;10.75;6.20;;;;;;;8.28;100.00;102704.53;4974851;28;20077;-77
2023/05/25 02:34:02;;;;;;;14.85;6.30;;;;;;;8.28;100.00;102707.19;4988086;28;20146;-77
2023/05/25 02:36:46;;;;;;;12.52;6.03;;;;;;;8.26;100.00;102705.44;4976618;28;20061;-76
2023/05/25 02:39:30;;;;;;;12.77;6.28;;;;;;;8.24;100.00;102705.44;4990107;28;20717;-77
2023/05/25 02:42:14;;;;;;;11.35;6.30;;;;;;;8.23;100.00;102711.59;4976227;28;20890;-77
2023/05/25 02:44:58;;;;;;;16.35;5.70;;;;;;;8.22;100.00;102715.13;4989608;28;20104;-77
2023/05/25 02:47:42;;;;;;;16.42;6.53;;;;;;;8.22;100.00;102720.41;4974729;28;20706;-76
2023/05/25 02:50:26;;;;;;;10.85;6.13;;;;;;;8.21;100.00;102721.28;4974081;28;20057;-76
2023/05/25 02:53:11;;;;;;;13.32;6.88;;;;;;;8.20;100.00;102727.47;4976843;28;20200;-77
2023/05/25 02:55:55;;;;;;;13.68;6.82;;;;;;;8.18;100.00;102726.59;4974828;28;20124;-78
2023/05/25 02:58:39;;;;;;;13.13;6.63;;;;;;;8.18;100.00;102728.34;4973335;28;20792;-77
2023/05/25 03:01:24;;;;;;;13.93;6.72;;;;;;;8.16;100.00;102728.34;4973379;28;20073;-76
2023/05/25 03:04:08;;;;;;;11.45;6.88;;;;;;;8.17;100.00;102729.25;4986980;28;20388;-77
2023/05/25 03:06:52;;;;;;;17.27;6.85;;;;;;;8.16;100.00;102741.53;4989699;28;20048;-77
2023/05/25 03:09:36;;;;;;;12.82;6.40;;;;;;;8.14;100.00;102738.03;4973712;28;20397;-76
2023/05/25 03:12:20;;;;;;;13.52;7.13;;;;;;;8.12;100.00;102734.53;4991033;28;20113;-77
2023/05/25 03:15:04;;;;;;;14.45;6.93;;;;;;;8.12;100.00;102739.81;4990102;28;20657;-77
2023/05/25 03:17:49;;;;;;;13.35;6.75;;;;;;;8.12;100.00;102740.69;4989593;28;20740;-76
2023/05/25 03:20:33;;;;;;;14.52;6.30;;;;;;;8.12;100.00;102737.19;4989313;28;20064;-77
2023/05/25 03:23:17;;;;;;;13.32;6.65;;;;;;;8.10;100.00;102739.81;4990436;28;20040;-77
2023/05/25 03:26:01;;;;;;;14.82;6.88;;;;;;;8.07;100.00;102742.44;4971118;28;20061;-77
2023/05/25 03:28:44;;;;;;;16.60;6.55;;;;;;;8.05;100.00;102746.88;4991111;28;20409;-77
2023/05/25 03:31:29;;;;;;;14.07;7.30;;;;;;;8.02;100.00;102747.75;4988596;28;20166;-77
2023/05/25 03:34:13;;;;;;;13.50;6.88;;;;;;;8.02;100.00;102745.13;4989877;28;20204;-76
2023/05/25 03:36:57;;;;;;;16.30;7.03;;;;;;;8.00;100.00;102752.16;4988104;28;20227;-77
2023/05/25 03:39:41;;;;;;;19.02;7.75;;;;;;;8.01;100.00;102758.34;4990477;28;20443;-77
2023/05/25 03:42:25;;;;;;;14.93;7.38;;;;;;;7.99;100.00;102760.06;4972464;28;20056;-77
2023/05/25 03:45:09;;;;;;;19.92;7.13;;;;;;;7.98;100.00;102763.59;4973506;28;20115;-77
2023/05/25 03:47:53;;;;;;;16.05;7.18;;;;;;;7.97;100.00;102762.75;4986873;28;20049;-77
2023/05/25 03:50:39;;;;;;;15.73;7.70;;;;;;;7.98;100.00;102755.69;4991271;28;20923;-76
2023/05/25 03:53:24;;;;;;;17.55;7.90;;;;;;;7.98;100.00;102759.22;4988340;28;20413;-77
2023/05/25 03:56:07;;;;;;;15.65;7.93;;;;;;;7.97;100.00;102762.75;4989008;28;20750;-76
2023/05/25 03:58:52;;;;;;;19.17;8.00;;;;;;;7.98;100.00;102764.50;4987202;28;20119;-77
2023/05/25 04:01:38;;;;;;;13.68;7.30;;;;;;;7.98;100.00;102761.84;4989015;28;20503;-77
2023/05/25 04:04:26;;;;;;;13.85;7.43;;;;;;;8.00;100.00;102768.00;4988540;28;20072;-77
2023/05/25 04:07:13;;;;;;;15.25;7.28;;;;;;;8.01;100.00;102768.88;4974113;28;20219;-77
2023/05/25 04:09:58;;;;;;;13.13;7.22;;;;;;;8.02;100.00;102771.50;4989954;28;20060;-77
2023/05/25 04:12:42;;;;;;;13.77;7.65;;;;;;;8.04;100.00;102762.69;4972333;28;20123;-76
2023/05/25 04:15:26;;;;;;;16.48;7.65;;;;;;;8.06;100.00;102767.09;4989728;28;20111;-77
2023/05/25 04:18:10;;;;;;;18.38;7.45;;;;;;;8.08;100.00;102764.44;4960056;28;20504;-77
2023/05/25 04:20:56;;;;;;;17.45;8.30;;;;;;;8.10;100.00;102763.56;4989754;28;20523;-77
2023/05/25 04:23:47;;;;;;;17.80;8.35;;;;;;;8.15;100.00;102769.69;4989166;28;20401;-77
2023/05/25 04:26:32;;;;;;;16.15;8.02;;;;;;;8.19;100.00;102774.94;4958432;28;20512;-76
2023/05/25 04:29:16;;;;;;;16.08;8.40;;;;;;;8.23;100.00;102776.72;4975364;28;20052;-76
2023/05/25 04:32:01;;;;;;;15.95;7.63;;;;;;;8.27;100.00;102779.31;4972108;28;20103;-77
2023/05/25 04:34:47;;;;;;;18.13;8.35;;;;;;;8.32;100.00;102783.72;4989777;28;20099;-77
2023/05/25 04:37:35;;;;;;;22.60;8.65;;;;;;;8.37;100.00;102781.91;4986029;28;20096;-76
2023/05/25 04:40:20;;;;;;;16.48;8.20;;;;;;;8.42;100.00;102780.13;4974588;28;20065;-77
2023/05/25 04:43:04;;;;;;;17.00;8.05;;;;;;;8.46;100.00;102779.22;4974950;28;20060;-77
2023/05/25 04:45:50;;;;;;;17.52;8.70;;;;;;;8.52;100.00;102781.88;4989838;28;20137;-77
2023/05/25 04:48:37;;;;;;;18.75;7.90;;;;;;;8.57;100.00;102784.47;4973024;28;20069;-76
2023/05/25 04:51:21;;;;;;;17.10;8.05;;;;;;;8.64;100.00;102780.03;4988090;28;20107;-76
2023/05/25 04:54:05;;;;;;;18.63;8.02;;;;;;;8.71;100.00;102783.50;4988760;28;20543;-77
2023/05/25 04:56:50;;;;;;;15.30;7.70;;;;;;;8.81;100.00;102780.81;4987289;28;20052;-77
2023/05/25 04:59:33;;;;;;;15.50;7.78;;;;;;;8.91;100.00;102786.00;4986231;28;22097;-76
2023/05/25 05:02:17;;;;;;;15.85;7.93;;;;;;;8.99;100.00;102783.31;4987569;28;21936;-76
2023/05/25 05:05:02;;;;;;;16.13;7.63;;;;;;;9.07;100.00;102785.00;4988859;28;20057;-76
2023/05/25 05:07:47;;;;;;;16.70;7.82;;;;;;;9.18;100.00;102792.84;4989458;28;20107;-76
2023/05/25 05:10:31;;;;;;;21.73;8.85;;;;;;;9.27;100.00;102797.19;4972263;28;20143;-76
2023/05/25 05:13:16;;;;;;;14.93;6.95;;;;;;;9.36;100.00;102793.56;4987535;28;21957;-74
2023/05/25 05:16:00;;;;;;;18.60;7.50;;;;;;;9.48;100.00;102800.53;4987475;28;20115;-76
2023/05/25 05:18:44;;;;;;;20.00;7.90;;;;;;;9.58;100.00;102793.38;4988751;28;20036;-75
2023/05/25 05:21:29;;;;;;;12.85;7.40;;;;;;;9.72;100.00;102793.22;4984014;28;20527;-76
2023/05/25 05:24:13;;;;;;;13.43;7.35;;;;;;;9.88;100.00;102799.22;4985695;28;20053;-74
2023/05/25 05:26:57;;;;;;;16.10;7.97;;;;;;;10.04;100.00;102798.13;4986801;28;20417;-75
2023/05/25 05:29:41;;;;;;;16.23;8.45;;;;;;;10.26;100.00;102802.31;4989730;28;20117;-76
2023/05/25 05:32:26;;;;;;;17.15;8.38;;;;;;;10.38;100.00;102799.50;4972067;28;20057;-76
2023/05/25 05:35:10;;;;;;;16.33;8.23;;;;;;;10.47;100.00;102809.13;4987946;28;20614;-76
2023/05/25 05:37:54;;;;;;;18.05;8.32;;;;;;;10.54;100.00;102802.84;4973682;28;20064;-77
2023/05/25 05:40:38;;;;;;;17.35;8.20;;;;;;;10.64;100.00;102816.84;4987980;28;20120;-76
2023/05/25 05:43:22;;;;;;;19.85;8.07;;;;;;;10.77;100.00;102827.22;4973391;28;20504;-76
2023/05/25 05:46:08;;;;;;;13.18;8.00;;;;;;;10.84;100.00;102818.31;4984968;28;20052;-76
2023/05/25 05:48:52;;;;;;;16.83;7.50;;;;;;;10.92;100.00;102821.72;4987300;28;20056;-76
2023/05/25 05:51:36;;;;;;;17.35;7.70;;;;;;;11.02;100.00;102826.88;4986273;28;20099;-76
2023/05/25 05:54:20;;;;;;;15.57;7.72;;;;;;;11.11;100.00;102832.06;4985401;28;20058;-76
2023/05/25 05:57:07;;;;;;;15.85;7.78;;;;;;;11.17;100.00;102837.22;4971642;28;20049;-76
2023/05/25 05:59:51;;;;;;;15.32;7.80;;;;;;;11.26;100.00;102837.09;4984962;28;20037;-76
2023/05/25 06:02:35;;;;;;;16.17;7.32;;;;;;;11.31;100.00;102846.72;4989733;28;20044;-75
2023/05/25 06:05:19;;;;;;;12.95;7.38;;;;;;;11.37;100.00;102844.88;4989778;28;21283;-75
2023/05/25 06:08:04;;;;;;;15.32;7.25;;;;;;;11.40;100.00;102849.25;4991459;28;20127;-75
2023/05/25 06:10:49;;;;;;;13.85;7.22;;;;;;;11.47;100.00;102858.84;4986189;28;20100;-75
2023/05/25 06:13:32;;;;;;;15.90;7.63;;;;;;;11.55;100.00;102858.69;4992352;28;20060;-76
2023/05/25 06:16:17;;;;;;;13.82;7.45;;;;;;;11.63;100.00;102859.47;4976203;28;20804;-74
2023/05/25 06:19:01;;;;;;;11.80;6.50;;;;;;;11.71;100.00;102855.78;4977800;28;20045;-75
2023/05/25 06:21:45;;;;;;;10.75;6.07;;;;;;;11.79;100.00;102859.19;4974562;28;20269;-75
2023/05/25 06:24:30;;;;;;;11.82;6.28;;;;;;;11.80;100.00;102864.47;4978172;28;20187;-75
2023/05/25 06:27:16;;;;;;;12.80;6.20;;;;;;;11.82;100.00;102862.66;4989902;28;20072;-75
2023/05/25 06:30:00;;;;;;;14.70;6.07;;;;;;;11.89;100.00;102865.19;4990944;28;20124;-76
2023/05/25 06:32:44;;;;;;;12.27;5.90;;;;;;;11.93;100.00;102875.72;4977822;28;20057;-76
2023/05/25 06:35:28;;;;;;;9.68;5.90;;;;;;;11.97;100.00;102878.31;4985969;28;20155;-77
2023/05/25 06:38:12;;;;;;;12.32;6.03;;;;;;;12.00;100.00;102884.44;4986571;28;20053;-75
2023/05/25 06:41:01;;;;;;;14.75;5.78;;;;;;;12.05;100.00;102879.09;4967302;28;20111;-76
2023/05/25 06:43:45;;;;;;;9.57;4.50;;;;;;;12.12;100.00;102885.13;4968234;28;20116;-78
2023/05/25 06:46:30;;;;;;;12.23;5.25;;;;;;;12.18;100.00;102888.56;4985335;28;20049;-77
2023/05/25 06:49:14;;;;;;;7.93;4.10;;;;;;;12.21;100.00;102883.16;4987271;28;20053;-76
2023/05/25 06:51:58;;;;;;;8.90;3.70;;;;;;;12.31;100.00;102891.84;4961372;28;20872;-78
2023/05/25 06:54:43;;;;;;;6.38;3.60;;;;;;;12.38;100.00;102875.78;4973921;28;20963;-76
2023/05/25 06:57:26;;;;;;;9.25;3.65;;;;;;;12.47;100.00;102894.16;4987206;28;20053;-77
2023/05/25 07:00:15;;;;;;;7.90;3.40;;;;;;;12.54;100.00;102889.63;4972776;28;20468;-78
2023/05/25 07:03:00;;;;;;;9.02;3.50;;;;;;;12.56;100.00;102895.75;4983134;28;20504;-76
2023/05/25 07:05:44;;;;;;;7.82;3.40;;;;;;;12.63;100.00;102897.38;4985188;28;20108;-76
2023/05/25 07:08:31;;;;;;;7.65;3.30;;;;;;;12.62;100.00;102904.50;4975281;28;20705;-77
2023/05/25 07:11:19;;;;;;;6.78;3.10;;;;;;;12.60;100.00;102908.94;4972019;28;20053;-77
2023/05/25 07:14:03;;;;;;;6.68;2.53;;;;;;;12.62;100.00;102907.16;4960820;28;20180;-76
2023/05/25 07:16:47;;;;;;;5.07;2.80;;;;;;;12.63;100.00;102906.25;4985189;28;20308;-76
2023/05/25 07:19:31;;;;;;;4.57;2.70;;;;;;;12.65;100.00;102919.50;4987246;28;20048;-86
2023/05/25 07:22:18;;;;;;;7.85;2.55;;;;;;;12.68;100.00;102915.91;4985405;28;20080;-80
2023/05/25 07:25:02;;;;;;;8.70;2.80;;;;;;;12.70;100.00;102919.41;4973174;28;20057;-78
2023/05/25 07:27:53;;;;;;;7.53;2.80;;;;;;;12.73;100.00;102935.25;4972659;28;20057;-79
2023/05/25 07:30:39;;;;;;;9.60;2.90;;;;;;;12.76;100.00;102929.91;4970635;28;20049;-79
2023/05/25 07:33:23;;;;;;;10.93;3.28;;;;;;;12.74;100.00;102929.03;4986949;28;20061;-79
2023/05/25 07:36:17;;;;;;;6.93;2.47;;;;;;;12.67;100.00;102935.38;4987812;28;20048;-79
2023/05/25 07:39:01;;;;;;;8.05;2.53;;;;;;;12.63;100.00;102940.78;4969687;28;20555;-78
2023/05/25 07:41:45;;;;;;;11.82;3.13;;;;;;;12.59;100.00;102939.09;4990483;28;20052;-81
2023/05/25 07:44:32;;;;;;;8.93;2.80;;;;;;;12.47;100.00;102941.97;4990074;28;20049;-79
2023/05/25 07:47:16;;;;;;;9.60;2.80;;;;;;;12.45;100.00;102938.50;4988473;28;20115;-79
2023/05/25 07:50:05;;;;;;;11.10;3.20;;;;;;;12.50;100.00;102949.91;4989634;28;20056;-79
2023/05/25 07:52:49;;;;;;;5.75;2.30;;;;;;;12.55;100.00;102950.69;4988371;28;20077;-78
2023/05/25 07:55:33;;;;;;;8.90;2.85;;;;;;;12.63;100.00;102951.41;4956025;28;20064;-79
2023/05/25 07:58:20;;;;;;;13.23;2.95;;;;;;;12.79;100.00;102956.41;4989263;28;20111;-78
2023/05/25 08:01:04;;;;;;;7.28;2.50;;;;;;;12.83;100.00;102952.78;4969560;28;20116;-79
2023/05/25 08:03:48;;;;;;;9.90;2.50;;;;;;;12.87;100.00;102954.44;4961167;28;20127;-80
2023/05/25 08:06:35;;;;;;;13.00;3.28;;;;;;;12.88;100.00;102953.56;4985732;28;20080;-80
2023/05/25 08:09:20;;;;;;;9.60;3.15;;;;;;;12.95;100.00;102964.03;4989802;28;20052;-79
2023/05/25 08:12:04;;;;;;;12.02;3.35;;;;;;;13.04;100.00;102966.50;4973262;28;20057;-81
2023/05/25 08:14:49;;;;;;;9.90;3.10;;;;;;;13.07;100.00;102965.56;4986954;28;20607;-81
2023/05/25 08:17:33;;;;;;;12.45;3.30;;;;;;;13.15;100.00;102968.94;4989900;28;20132;-79
2023/05/25 08:20:22;;;;;;;8.68;2.70;;;;;;;13.14;100.00;102968.03;4973629;28;20092;-81
2023/05/25 08:23:07;;;;;;;8.10;2.42;;;;;;;13.14;100.00;102973.34;4979717;28;20103;-78
2023/05/25 08:25:52;;;;;;;10.48;2.60;;;;;;;13.14;100.00;102978.69;4970614;28;20040;-80
2023/05/25 08:28:38;;;;;;;7.38;2.30;;;;;;;13.14;100.00;102978.69;4988145;28;20802;-83
2023/05/25 08:31:22;;;;;;;12.63;2.10;;;;;;;13.07;100.00;102977.06;4980942;28;20125;-80
2023/05/25 08:34:06;;;;;;;9.05;2.25;;;;;;;12.95;100.00;102985.31;4980549;28;20583;-79
2023/05/25 08:36:50;;;;;;;9.55;2.33;;;;;;;13.05;100.00;102976.22;4986463;28;20052;-80
2023/05/25 08:39:35;;;;;;;10.52;2.85;;;;;;;13.28;100.00;102981.03;4976815;28;20085;-78
2023/05/25 08:42:19;;;;;;;8.65;2.28;;;;;;;13.43;99.37;102976.28;4978101;28;20409;-79
2023/05/25 08:45:03;;;;;;;11.88;2.40;;;;;;;13.47;99.53;102985.09;4980416;28;20084;-80
2023/05/25 08:47:55;;;;;;;6.30;2.28;;;;;;;13.53;96.53;102987.59;4971800;28;21822;-79
2023/05/25 08:50:41;;;;;;;12.27;2.50;;;;;;;13.52;97.45;102993.84;4966387;28;20056;-78
2023/05/25 08:53:25;;;;;;;6.80;1.98;;;;;;;13.54;99.02;102992.00;4966696;28;20531;-80
2023/05/25 08:56:18;;;;;;;9.18;2.60;;;;;;;13.56;97.56;103000.81;4970283;28;20048;-79
2023/05/25 08:59:13;;;;;;;8.45;2.63;;;;;;;13.66;97.39;102996.16;4969131;28;20167;-78
2023/05/25 09:02:29;;;;;;;12.23;2.20;;;;;;;13.89;91.10;102994.72;4987363;28;20052;-79
2023/05/25 09:05:14;;;;;;;9.45;2.33;;;;;;;14.03;92.57;102995.25;4982585;28;20139;-79
2023/05/25 09:07:59;;;;;;;11.98;2.45;;;;;;;14.11;86.78;103003.06;4981807;28;20044;-77
2023/05/25 09:10:43;;;;;;;6.78;2.22;;;;;;;14.13;90.73;102995.88;4967373;28;20791;-77
2023/05/25 09:13:27;;;;;;;8.48;2.20;;;;;;;14.18;93.16;103001.97;4972829;28;20060;-79
2023/05/25 09:16:12;;;;;;;12.57;2.50;;;;;;;14.19;92.99;103009.03;4983825;28;20850;-80
2023/05/25 09:18:57;;;;;;;9.77;2.17;;;;;;;14.38;91.62;103000.53;4985526;28;20147;-76
2023/05/25 09:21:42;;;;;;;10.88;2.38;;;;;;;14.64;91.91;103001.59;4988470;28;20119;-77
2023/05/25 09:24:26;;;;;;;13.18;2.63;;;;;;;14.84;92.37;103001.09;4968787;28;20053;-78
2023/05/25 09:27:12;;;;;;;12.15;2.28;;;;;;;15.00;90.66;103014.84;4957896;28;20281;-78
2023/05/25 09:29:59;;;;;;;10.13;2.92;;;;;;;15.23;89.45;103005.25;4968697;28;20077;-79
2023/05/25 09:32:43;;;;;;;12.15;2.78;;;;;;;15.42;87.16;103002.88;4984161;28;20108;-79
2023/05/25 09:35:28;;;;;;;9.75;2.50;;;;;;;15.48;86.06;103015.19;4985528;28;20173;-79
2023/05/25 09:38:13;;;;;;;9.00;2.33;;;;;;;15.32;79.83;103004.97;4957151;28;20508;-79
2023/05/25 09:40:58;;;;;;;6.80;2.40;;;;;;;15.21;78.60;103001.78;4985657;28;20151;-78
2023/05/25 09:43:43;;;;;;;11.15;2.40;;;;;;;15.21;82.29;103012.44;4986901;28;20048;-79
2023/05/25 09:46:28;;;;;;;7.05;2.08;;;;;;;15.23;80.06;103010.59;4981174;28;20060;-80
2023/05/25 09:49:12;;;;;;;10.00;2.20;;;;;;;15.12;77.85;103015.38;4987497;28;20097;-79
2023/05/25 09:51:56;;;;;;;10.30;2.63;;;;;;;15.06;79.59;103011.09;4986666;28;20081;-80
2023/05/25 09:54:50;;;;;;;6.88;2.47;;;;;;;15.09;78.08;103012.81;4982288;28;20048;-80
2023/05/25 09:57:35;;;;;;;7.75;2.03;;;;;;;15.22;81.21;103014.19;4971436;28;20053;-79
2023/05/25 10:00:19;;;;;;;5.60;2.30;;;;;;;15.13;76.76;103025.13;4968355;28;20457;-79
2023/05/25 10:03:03;;;;;;;7.22;2.10;;;;;;;15.10;78.62;103023.44;4971088;28;20239;-78
2023/05/25 10:05:47;;;;;;;10.40;2.47;;;;;;;14.98;77.45;103027.31;4973346;28;20061;-79
2023/05/25 10:08:32;;;;;;;7.72;2.33;;;;;;;14.92;79.12;103033.72;4986729;28;20072;-79
2023/05/25 10:11:21;;;;;;;8.38;2.25;;;;;;;14.79;78.28;103038.56;4971488;28;20052;-80
2023/05/25 10:14:06;;;;;;;8.40;2.35;;;;;;;14.79;78.62;103022.56;4971667;28;20155;-78
2023/05/25 10:16:52;;;;;;;11.45;2.25;;;;;;;14.94;79.36;103026.53;4965853;28;21013;-78
2023/05/25 10:19:41;;;;;;;11.93;2.30;;;;;;;14.80;77.63;103026.06;4957873;28;22337;-78
2023/05/25 10:22:54;;;;;;;7.72;2.10;;;;;;;14.66;73.81;103035.31;4987736;28;21062;-75
2023/05/25 10:25:40;;;;;;;9.67;1.97;;;;;;;14.55;76.87;103020.53;4958402;28;20150;-76
2023/05/25 10:28:30;;;;;;;10.00;2.75;;;;;;;14.62;78.04;103027.44;4967955;28;20064;-77
2023/05/25 10:31:17;;;;;;;9.40;1.98;;;;;;;14.69;76.88;103034.34;4983484;28;20112;-77
2023/05/25 10:34:02;;;;;;;8.70;2.42;;;;;;;14.84;78.91;103030.41;4982772;28;20045;-79
2023/05/25 10:36:47;;;;;;;9.73;2.53;;;;;;;14.88;76.70;103036.53;4970088;28;20139;-81
2023/05/25 10:39:32;;;;;;;8.40;1.85;;;;;;;14.88;76.19;103028.53;4945975;28;20599;-80
2023/05/25 10:42:17;;;;;;;10.35;2.50;;;;;;;14.93;76.38;103029.28;4974459;28;20049;-80
2023/05/25 10:45:06;;;;;;;11.82;2.70;;;;;;;14.99;79.00;103031.72;4951705;28;20045;-79
2023/05/25 10:47:51;;;;;;;5.82;1.73;;;;;;;15.00;78.57;103037.97;4958746;28;20041;-78
2023/05/25 10:50:36;;;;;;;10.90;2.67;;;;;;;14.79;76.96;103035.00;4973155;28;20053;-79
2023/05/25 10:53:20;;;;;;;13.48;2.28;;;;;;;14.77;78.52;103043.03;4959451;28;20129;-78
2023/05/25 10:56:09;;;;;;;10.13;2.40;;;;;;;14.82;78.66;103036.72;4956471;28;20048;-78
2023/05/25 10:58:53;;;;;;;11.18;2.15;;;;;;;14.78;79.77;103047.44;4944550;28;20572;-80
2023/05/25 11:01:49;;;;;;;7.13;1.83;;;;;;;14.73;77.04;103043.13;4956628;28;20057;-80
2023/05/25 11:04:36;;;;;;;5.90;2.17;;;;;;;14.59;77.93;103040.88;4970000;28;20485;-80
2023/05/25 11:07:23;;;;;;;10.13;2.70;;;;;;;14.69;79.18;103039.69;4971530;28;20465;-79
2023/05/25 11:10:07;;;;;;;9.45;2.55;;;;;;;14.82;78.98;103050.03;4971118;28;20049;-78
2023/05/25 11:12:51;;;;;;;12.73;2.25;;;;;;;14.78;78.02;103030.59;4976134;28;20053;-79
2023/05/25 11:15:36;;;;;;;14.32;2.85;;;;;;;14.82;78.61;103036.72;4948442;28;20053;-81
2023/05/25 11:18:20;;;;;;;10.07;2.70;;;;;;;14.99;79.35;103026.41;4974185;28;20056;-79
2023/05/25 11:21:22;;;;;;;9.40;2.63;;;;;;;14.85;75.92;103031.28;4971471;28;20181;-81
2023/05/25 11:24:12;;;;;;;9.07;2.75;;;;;;;14.86;77.37;103033.91;4976875;28;20056;-81
2023/05/25 11:27:00;;;;;;;9.10;2.38;;;;;;;14.93;76.50;103027.47;4972770;28;20509;-82
2023/05/25 11:29:49;;;;;;;7.10;2.40;;;;;;;14.89;76.16;103035.59;4972116;28;20132;-79
2023/05/25 11:32:38;;;;;;;9.15;2.42;;;;;;;14.86;79.66;103033.91;4959884;28;20563;-80
2023/05/25 11:35:25;;;;;;;10.80;3.03;;;;;;;14.80;79.38;103034.97;4971906;28;20433;-80
2023/05/25 11:38:09;;;;;;;9.68;2.63;;;;;;;14.64;75.38;103029.16;4973437;28;20225;-81
2023/05/25 11:40:54;;;;;;;6.97;2.15;;;;;;;14.58;78.33;103028.44;4973081;28;20189;-81
2023/05/25 11:43:39;;;;;;;9.15;2.40;;;;;;;14.67;79.53;103037.03;4982384;28;20792;-79
2023/05/25 11:46:23;;;;;;;11.75;2.88;;;;;;;14.72;79.73;103036.94;4980441;28;20044;-81
2023/05/25 11:49:08;;;;;;;11.02;2.78;;;;;;;14.78;81.69;103031.44;4988346;28;20056;-79
2023/05/25 11:51:56;;;;;;;7.93;2.60;;;;;;;14.86;79.79;103033.03;4987539;28;20191;-80
2023/05/25 11:54:41;;;;;;;10.43;2.85;;;;;;;14.87;76.97;103029.44;4986204;28;20776;-81
2023/05/25 11:57:25;;;;;;;8.15;2.22;;;;;;;14.80;79.89;103029.63;4987209;28;20606;-80
2023/05/25 12:00:10;;;;;;;12.23;2.35;;;;;;;14.86;79.88;103027.72;4971594;28;20227;-80
2023/05/25 12:02:55;;;;;;;10.57;2.30;;;;;;;14.85;78.46;103031.28;4989348;28;20120;-80
2023/05/25 12:05:39;;;;;;;8.68;2.08;;;;;;;14.86;73.66;103031.22;4990762;28;20321;-78
2023/05/25 12:08:36;;;;;;;10.70;2.50;;;;;;;14.87;78.14;103018.78;4988571;28;20049;-79
2023/05/25 12:11:28;;;;;;;9.18;2.47;;;;;;;14.88;78.84;103016.06;4990114;28;20044;-80
2023/05/25 12:14:13;;;;;;;8.20;2.50;;;;;;;14.88;76.58;103007.19;4989796;28;20068;-81
2023/05/25 12:16:58;;;;;;;10.38;1.90;;;;;;;14.89;77.66;103014.28;4974851;28;20168;-79
2023/05/25 12:19:42;;;;;;;9.70;2.65;;;;;;;14.90;76.86;103010.69;4961339;28;20730;-81
2023/05/25 12:22:26;;;;;;;11.13;2.47;;;;;;;14.84;78.05;103017.09;4969827;28;20188;-81
2023/05/25 12:25:11;;;;;;;11.38;2.70;;;;;;;14.88;79.67;103013.38;4971005;28;20459;-83
2023/05/25 12:28:09;;;;;;;13.32;2.70;;;;;;;14.77;79.76;103019.03;4975939;28;20048;-85
2023/05/25 12:30:54;;;;;;;12.15;2.30;;;;;;;14.60;79.99;103016.81;4976316;28;20057;-86
2023/05/25 12:33:38;;;;;;;11.43;2.50;;;;;;;14.51;79.76;103017.94;4987075;28;21006;-83
2023/05/25 12:36:40;;;;;;;11.75;2.20;;;;;;;14.49;79.15;103011.78;4990377;28;20064;-81
2023/05/25 12:39:27;;;;;;;10.68;2.40;;;;;;;14.42;80.49;103007.53;4975374;28;21104;-84
2023/05/25 12:42:16;;;;;;;14.65;3.05;;;;;;;14.41;81.33;103008.47;4969127;28;20639;-80